createdAt,value
2023-05-15T00:02:23.297Z,2.53
2023-05-15T00:04:50.675Z,2.75
2023-05-15T00:07:17.710Z,3.60
2023-05-15T00:09:44.916Z,3.35
2023-05-15T00:12:11.892Z,2.78
2023-05-15T00:14:38.894Z,3.28
2023-05-15T00:17:06.344Z,4.05
2023-05-15T00:19:33.379Z,3.35
2023-05-15T00:22:00.445Z,3.50
2023-05-15T00:24:27.449Z,3.00
2023-05-15T00:26:54.424Z,2.95
2023-05-15T00:29:21.589Z,3.65
2023-05-15T00:31:48.601Z,3.08
2023-05-15T00:34:15.661Z,7.35
2023-05-15T00:36:42.643Z,2.63
2023-05-15T00:39:09.680Z,3.85
2023-05-15T00:41:37.703Z,3.00
2023-05-15T00:44:06.750Z,3.00
2023-05-15T00:46:36.133Z,5.63
2023-05-15T00:49:07.258Z,4.25
2023-05-15T00:51:35.434Z,3.30
2023-05-15T00:54:03.334Z,3.63
2023-05-15T00:56:32.354Z,7.97
2023-05-15T00:59:01.227Z,4.40
2023-05-15T01:01:33.528Z,3.70
2023-05-15T01:04:02.368Z,4.63
2023-05-15T01:06:30.582Z,3.22
2023-05-15T01:09:02.302Z,3.90
2023-05-15T01:11:36.677Z,3.17
2023-05-15T01:14:05.929Z,3.25
2023-05-15T01:16:34.288Z,3.50
2023-05-15T01:19:01.539Z,5.32
2023-05-15T01:21:37.719Z,5.32
2023-05-15T01:24:16.693Z,3.80
2023-05-15T01:27:17.102Z,3.90
2023-05-15T01:30:28.875Z,5.80
2023-05-15T01:33:10.393Z,2.90
2023-05-15T01:35:57.937Z,3.38
2023-05-15T01:38:30.779Z,4.07
2023-05-15T01:41:03.558Z,4.10
2023-05-15T01:43:33.847Z,4.78
2023-05-15T01:46:01.363Z,3.40
2023-05-15T01:48:31.477Z,3.30
2023-05-15T01:51:03.629Z,3.33
2023-05-15T01:53:35.419Z,3.17
2023-05-15T01:56:04.113Z,3.42
2023-05-15T01:58:32.447Z,2.95
2023-05-15T02:01:01.693Z,2.75
2023-05-15T02:03:30.985Z,6.05
2023-05-15T02:05:58.105Z,3.80
2023-05-15T02:08:29.046Z,3.80
2023-05-15T02:10:59.084Z,3.15
2023-05-15T02:13:26.637Z,3.10
2023-05-15T02:15:53.800Z,2.95
2023-05-15T02:18:21.366Z,3.38
2023-05-15T02:20:48.496Z,3.80
2023-05-15T02:23:15.528Z,4.18
2023-05-15T02:25:52.992Z,3.17
2023-05-15T02:28:28.966Z,3.30
2023-05-15T02:31:00.468Z,3.38
2023-05-15T02:33:34.880Z,2.92
2023-05-15T02:36:11.466Z,3.40
2023-05-15T02:38:46.913Z,3.50
2023-05-15T02:41:16.566Z,3.63
2023-05-15T02:43:44.547Z,7.38
2023-05-15T02:46:15.028Z,3.38
2023-05-15T02:48:43.884Z,3.13
2023-05-15T02:51:11.080Z,4.40
2023-05-15T02:53:42.440Z,4.05
2023-05-15T02:56:09.731Z,3.30
2023-05-15T02:58:37.974Z,5.00
2023-05-15T03:01:05.108Z,3.70
2023-05-15T03:03:32.319Z,5.90
2023-05-15T03:06:01.130Z,4.22
2023-05-15T03:08:28.331Z,3.55
2023-05-15T03:10:55.506Z,5.15
2023-05-15T03:13:22.498Z,4.88
2023-05-15T03:15:49.673Z,4.15
2023-05-15T03:18:19.182Z,5.65
2023-05-15T03:20:49.047Z,4.72
2023-05-15T03:23:16.214Z,4.05
2023-05-15T03:25:43.346Z,4.35
2023-05-15T03:28:10.704Z,4.10
2023-05-15T03:30:37.766Z,4.40
2023-05-15T03:33:05.721Z,3.88
2023-05-15T03:35:32.853Z,3.60
2023-05-15T03:37:59.887Z,5.22
2023-05-15T03:40:26.879Z,3.63
2023-05-15T03:42:53.966Z,3.72
2023-05-15T03:45:21.519Z,3.25
2023-05-15T03:47:48.988Z,4.68
2023-05-15T03:50:16.380Z,3.60
2023-05-15T03:52:43.464Z,5.30
2023-05-15T03:55:10.587Z,3.72
2023-05-15T03:57:37.788Z,3.83
2023-05-15T04:00:10.418Z,3.30
2023-05-15T04:02:38.472Z,4.20
2023-05-15T04:05:07.232Z,3.63
2023-05-15T04:07:35.630Z,3.45
2023-05-15T04:10:03.121Z,3.47
2023-05-15T04:12:32.611Z,3.15
2023-05-15T04:15:13.334Z,3.20
2023-05-15T04:17:40.387Z,3.40
2023-05-15T04:20:09.233Z,3.67
2023-05-15T04:22:36.434Z,3.15
2023-05-15T04:25:04.860Z,3.53
2023-05-15T04:27:31.845Z,4.22
2023-05-15T04:29:58.916Z,2.85
2023-05-15T04:32:25.946Z,2.80
2023-05-15T04:34:53.096Z,3.67
2023-05-15T04:37:20.186Z,2.10
2023-05-15T04:39:47.257Z,2.60
2023-05-15T04:42:14.326Z,2.50
2023-05-15T04:44:41.582Z,2.10
2023-05-15T04:47:08.541Z,2.60
2023-05-15T04:49:35.601Z,2.05
2023-05-15T04:52:02.607Z,2.97
2023-05-15T04:54:29.712Z,2.17
2023-05-15T04:56:56.716Z,2.25
2023-05-15T04:59:25.036Z,1.85
2023-05-15T05:01:52.891Z,2.42
2023-05-15T05:04:20.362Z,2.20
2023-05-15T05:06:47.843Z,2.38
2023-05-15T05:09:14.888Z,2.92
2023-05-15T05:11:45.260Z,2.28
2023-05-15T05:14:13.873Z,1.73
2023-05-15T05:16:41.648Z,3.40
2023-05-15T05:19:08.804Z,3.33
2023-05-15T05:21:35.873Z,2.20
2023-05-15T05:24:02.886Z,1.80
2023-05-15T05:26:29.977Z,2.30
2023-05-15T05:28:57.084Z,3.75
2023-05-15T05:31:24.208Z,1.95
2023-05-15T05:33:52.884Z,1.90
2023-05-15T05:36:19.948Z,1.90
2023-05-15T05:38:46.955Z,2.30
2023-05-15T05:41:13.992Z,4.93
2023-05-15T05:43:42.038Z,2.00
2023-05-15T05:46:09.193Z,1.92
2023-05-15T05:48:36.707Z,2.85
2023-05-15T05:51:03.920Z,3.30
2023-05-15T05:53:30.921Z,2.20
2023-05-15T05:55:58.013Z,2.60
2023-05-15T05:58:26.325Z,1.70
2023-05-15T06:00:54.192Z,1.45
2023-05-15T06:03:21.620Z,1.60
2023-05-15T06:05:48.859Z,1.38
2023-05-15T06:08:17.059Z,2.35
2023-05-15T06:10:44.077Z,1.55
2023-05-15T06:13:11.968Z,1.48
2023-05-15T06:15:39.078Z,3.40
2023-05-15T06:18:06.292Z,1.00
2023-05-15T06:20:33.663Z,3.53
2023-05-15T06:23:00.716Z,1.00
2023-05-15T06:25:27.684Z,1.27
2023-05-15T06:27:55.868Z,1.02
2023-05-15T06:30:23.205Z,1.27
2023-05-15T06:32:50.603Z,2.20
2023-05-15T06:35:17.684Z,1.45
2023-05-15T06:37:44.901Z,1.95
2023-05-15T06:40:12.201Z,1.25
2023-05-15T06:42:39.221Z,1.00
2023-05-15T06:45:07.022Z,0.88
2023-05-15T06:47:34.091Z,1.30
2023-05-15T06:50:01.155Z,2.47
2023-05-15T06:52:28.210Z,2.25
2023-05-15T06:54:55.301Z,1.00
2023-05-15T06:57:22.351Z,1.25
2023-05-15T06:59:49.352Z,3.88
2023-05-15T07:02:16.490Z,1.15
2023-05-15T07:04:43.601Z,2.08
2023-05-15T07:07:10.649Z,3.63
2023-05-15T07:09:37.684Z,2.00
2023-05-15T07:12:05.110Z,2.63
2023-05-15T07:14:32.211Z,2.38
2023-05-15T07:16:59.327Z,2.30
2023-05-15T07:19:26.571Z,3.03
2023-05-15T07:21:53.636Z,1.50
2023-05-15T07:24:20.718Z,1.70
2023-05-15T07:26:58.136Z,2.15
2023-05-15T07:29:26.677Z,1.40
2023-05-15T07:31:54.107Z,1.80
2023-05-15T07:34:21.288Z,2.63
2023-05-15T07:36:48.324Z,2.30
2023-05-15T07:39:16.114Z,2.22
2023-05-15T07:41:43.159Z,1.65
2023-05-15T07:44:10.078Z,2.40
2023-05-15T07:46:39.196Z,1.73
2023-05-15T07:49:06.360Z,1.73
2023-05-15T07:51:33.441Z,4.13
2023-05-15T07:54:00.894Z,3.70
2023-05-15T07:56:28.348Z,1.95
2023-05-15T07:58:55.454Z,1.73
2023-05-15T08:01:22.532Z,2.03
2023-05-15T08:03:49.725Z,3.58
2023-05-15T08:06:16.858Z,1.33
2023-05-15T08:08:43.892Z,1.60
2023-05-15T08:11:10.858Z,1.60
2023-05-15T08:13:37.895Z,3.55
2023-05-15T08:16:05.726Z,1.95
2023-05-15T08:18:32.984Z,1.40
2023-05-15T08:21:00.044Z,1.40
2023-05-15T08:23:27.158Z,1.30
2023-05-15T08:25:54.872Z,1.13
2023-05-15T08:28:21.919Z,2.75
2023-05-15T08:30:49.175Z,1.55
2023-05-15T08:33:16.326Z,0.70
2023-05-15T08:35:44.107Z,1.03
2023-05-15T08:38:11.595Z,1.47
2023-05-15T08:40:41.535Z,0.90
2023-05-15T08:43:16.236Z,1.73
2023-05-15T08:45:44.087Z,0.77
2023-05-15T08:48:14.772Z,0.70
2023-05-15T08:50:43.774Z,1.00
2023-05-15T08:53:14.292Z,0.90
2023-05-15T08:55:42.425Z,0.80
2023-05-15T08:58:10.177Z,0.70
2023-05-15T09:00:37.887Z,1.00
2023-05-15T09:03:05.883Z,1.30
2023-05-15T09:05:33.640Z,0.90
2023-05-15T09:08:04.412Z,1.50
2023-05-15T09:10:33.316Z,1.20
2023-05-15T09:13:02.649Z,1.10
2023-05-15T09:15:30.973Z,1.13
2023-05-15T09:17:59.440Z,1.27
2023-05-15T09:20:38.190Z,0.93
2023-05-15T09:23:21.896Z,1.30
2023-05-15T09:25:53.758Z,0.87
2023-05-15T09:28:34.089Z,0.90
2023-05-15T09:31:04.097Z,1.20
2023-05-15T09:33:36.254Z,1.50
2023-05-15T09:36:05.228Z,1.10
2023-05-15T09:38:58.022Z,0.90
2023-05-15T09:41:26.988Z,1.60
2023-05-15T09:43:57.149Z,5.83
2023-05-15T09:46:24.695Z,1.70
2023-05-15T09:48:55.829Z,1.40
2023-05-15T09:51:23.161Z,1.53
2023-05-15T09:53:58.731Z,1.70
2023-05-15T09:56:26.416Z,1.55
2023-05-15T09:58:58.624Z,1.90
2023-05-15T10:01:27.889Z,2.17
2023-05-15T10:04:03.826Z,2.15
2023-05-15T10:06:40.650Z,2.10
2023-05-15T10:09:11.025Z,1.80
2023-05-15T10:11:40.040Z,1.70
2023-05-15T10:14:09.845Z,1.90
2023-05-15T10:16:38.647Z,1.83
2023-05-15T10:19:08.328Z,2.97
2023-05-15T10:21:40.562Z,1.43
2023-05-15T10:24:08.722Z,1.63
2023-05-15T10:26:40.985Z,1.97
2023-05-15T10:29:13.405Z,2.17
2023-05-15T10:31:41.871Z,0.87
2023-05-15T10:34:11.326Z,1.97
2023-05-15T10:36:38.985Z,1.50
2023-05-15T10:39:07.505Z,1.30
2023-05-15T10:41:37.458Z,2.27
2023-05-15T10:44:05.034Z,1.30
2023-05-15T10:46:35.607Z,10.10
2023-05-15T10:49:03.124Z,1.53
2023-05-15T10:51:37.068Z,1.20
2023-05-15T10:54:04.401Z,1.73
2023-05-15T10:56:37.538Z,1.40
2023-05-15T10:59:09.858Z,2.33
2023-05-15T11:01:39.097Z,1.00
2023-05-15T11:04:14.308Z,1.07
2023-05-15T11:06:46.869Z,6.60
2023-05-15T11:09:22.842Z,1.30
2023-05-15T11:11:53.192Z,1.33
2023-05-15T11:14:20.504Z,1.23
2023-05-15T11:16:53.907Z,2.10
2023-05-15T11:19:31.669Z,1.37
2023-05-15T11:21:59.690Z,3.20
2023-05-15T11:24:50.124Z,1.67
2023-05-15T11:27:25.851Z,2.70
2023-05-15T11:30:23.648Z,2.13
2023-05-15T11:32:56.334Z,1.60
2023-05-15T11:35:34.315Z,1.63
2023-05-15T11:38:10.532Z,1.83
2023-05-15T11:40:57.149Z,1.10
2023-05-15T11:43:29.484Z,1.20
2023-05-15T11:46:08.241Z,1.50
2023-05-15T11:48:48.647Z,3.83
2023-05-15T11:51:22.013Z,1.33
2023-05-15T11:53:54.009Z,1.40
2023-05-15T11:56:28.618Z,1.87
2023-05-15T11:58:57.947Z,3.80
2023-05-15T12:01:25.172Z,3.00
2023-05-15T12:03:55.053Z,1.30
2023-05-15T12:06:23.107Z,2.60
2023-05-15T12:08:53.854Z,1.20
2023-05-15T12:11:25.451Z,0.80
2023-05-15T12:13:56.614Z,2.27
2023-05-15T12:16:26.737Z,1.03
2023-05-15T12:18:54.147Z,1.70
2023-05-15T12:21:21.375Z,2.00
2023-05-15T12:24:06.367Z,0.80
2023-05-15T12:26:36.256Z,1.00
2023-05-15T12:29:04.678Z,1.00
2023-05-15T12:31:34.215Z,0.90
2023-05-15T12:34:01.455Z,0.97
2023-05-15T12:36:31.849Z,2.83
2023-05-15T12:39:04.979Z,1.13
2023-05-15T12:41:32.003Z,1.70
2023-05-15T12:43:59.298Z,5.70
2023-05-15T12:46:32.065Z,3.77
2023-05-15T12:49:00.057Z,1.07
2023-05-15T12:51:27.608Z,2.50
2023-05-15T12:53:57.177Z,1.33
2023-05-15T12:56:24.477Z,1.00
2023-05-15T12:58:54.636Z,1.63
2023-05-15T13:01:22.589Z,2.00
2023-05-15T13:03:50.390Z,0.87
2023-05-15T13:06:17.703Z,1.20
2023-05-15T13:08:45.857Z,2.03
2023-05-15T13:11:14.752Z,0.70
2023-05-15T13:13:46.741Z,2.40
2023-05-15T13:16:25.833Z,1.03
2023-05-15T13:18:53.312Z,1.13
2023-05-15T13:21:20.531Z,1.07
2023-05-15T13:23:47.816Z,0.80
2023-05-15T13:26:15.023Z,0.90
2023-05-15T13:28:42.036Z,0.97
2023-05-15T13:31:09.339Z,3.07
2023-05-15T13:33:36.362Z,0.63
2023-05-15T13:36:03.431Z,0.87
2023-05-15T13:38:31.361Z,0.97
2023-05-15T13:40:59.019Z,1.33
2023-05-15T13:43:26.915Z,1.47
2023-05-15T13:45:54.699Z,2.47
2023-05-15T13:48:22.074Z,5.67
2023-05-15T13:50:49.399Z,1.07
2023-05-15T13:53:17.174Z,0.80
2023-05-15T13:55:46.041Z,3.50
2023-05-15T13:58:13.888Z,1.10
2023-05-15T14:00:43.263Z,1.03
2023-05-15T14:03:12.014Z,2.83
2023-05-15T14:05:41.266Z,1.90
2023-05-15T14:08:08.381Z,0.70
2023-05-15T14:10:37.792Z,3.13
2023-05-15T14:13:05.066Z,0.90
2023-05-15T14:15:32.171Z,0.80
2023-05-15T14:17:59.303Z,0.70
2023-05-15T14:20:26.836Z,0.60
2023-05-15T14:22:54.150Z,1.37
2023-05-15T14:25:21.467Z,3.37
2023-05-15T14:27:48.624Z,0.60
2023-05-15T14:30:15.769Z,0.90
2023-05-15T14:32:42.873Z,1.00
2023-05-15T14:35:10.604Z,2.10
2023-05-15T14:37:38.020Z,5.77
2023-05-15T14:40:05.581Z,0.90
2023-05-15T14:42:32.702Z,0.63
2023-05-15T14:44:59.975Z,0.60
2023-05-15T14:47:28.756Z,3.60
2023-05-15T14:49:56.065Z,1.10
2023-05-15T14:52:23.403Z,0.87
2023-05-15T14:55:00.702Z,2.57
2023-05-15T14:57:34.786Z,4.77
2023-05-15T15:00:01.907Z,2.60
2023-05-15T15:02:29.120Z,1.00
2023-05-15T15:04:56.375Z,1.03
2023-05-15T15:07:27.154Z,1.23
2023-05-15T15:09:54.255Z,1.27
2023-05-15T15:12:21.308Z,1.93
2023-05-15T15:14:48.456Z,1.20
2023-05-15T15:17:15.600Z,2.93
2023-05-15T15:19:42.737Z,5.00
2023-05-15T15:22:09.809Z,4.70
2023-05-15T15:24:36.924Z,2.07
2023-05-15T15:27:03.996Z,2.13
2023-05-15T15:29:31.011Z,2.33
2023-05-15T15:31:58.220Z,2.13
2023-05-15T15:34:25.317Z,1.10
2023-05-15T15:36:52.584Z,2.47
2023-05-15T15:39:19.603Z,1.57
2023-05-15T15:41:46.723Z,1.00
2023-05-15T15:44:13.836Z,1.30
2023-05-15T15:46:41.069Z,2.90
2023-05-15T15:49:08.336Z,1.17
2023-05-15T15:51:35.500Z,1.47
2023-05-15T15:54:02.664Z,1.40
2023-05-15T15:56:29.708Z,1.77
2023-05-15T15:58:56.934Z,1.50
2023-05-15T16:01:24.160Z,1.40
2023-05-15T16:03:51.324Z,1.70
2023-05-15T16:06:18.334Z,2.90
2023-05-15T16:08:45.328Z,2.00
2023-05-15T16:11:12.492Z,2.20
2023-05-15T16:13:40.943Z,1.70
2023-05-15T16:16:08.379Z,1.70
2023-05-15T16:18:35.797Z,4.33
2023-05-15T16:21:02.859Z,3.20
2023-05-15T16:23:35.075Z,1.50
2023-05-15T16:26:03.121Z,2.00
2023-05-15T16:28:30.386Z,1.77
2023-05-15T16:30:59.119Z,3.20
2023-05-15T16:33:26.392Z,2.93
2023-05-15T16:38:20.920Z,3.43
2023-05-15T16:40:48.051Z,2.47
2023-05-15T16:43:15.695Z,5.57
2023-05-15T16:45:44.597Z,2.47
2023-05-15T16:48:11.735Z,2.20
2023-05-15T16:50:38.764Z,2.40
2023-05-15T16:53:06.023Z,2.60
2023-05-15T16:55:33.358Z,2.00
2023-05-15T16:58:00.613Z,2.60
2023-05-15T17:00:28.097Z,2.50
2023-05-15T17:02:55.448Z,2.80
2023-05-15T17:05:22.570Z,4.70
2023-05-15T17:07:49.653Z,3.30
2023-05-15T17:10:16.766Z,2.53
2023-05-15T17:12:44.178Z,1.80
2023-05-15T17:15:14.152Z,2.77
2023-05-15T17:17:41.284Z,2.33
2023-05-15T17:20:09.025Z,2.60
2023-05-15T17:22:36.287Z,1.80
2023-05-15T17:25:04.335Z,2.50
2023-05-15T17:27:31.616Z,2.33
2023-05-15T17:29:58.657Z,2.43
2023-05-15T17:32:26.154Z,2.50
2023-05-15T17:34:53.303Z,2.33
2023-05-15T17:37:20.383Z,3.73
2023-05-15T17:39:47.477Z,2.57
2023-05-15T17:42:14.590Z,6.40
2023-05-15T17:44:41.657Z,2.30
2023-05-15T17:47:10.469Z,3.00
2023-05-15T17:49:38.864Z,2.40
2023-05-15T17:52:07.336Z,3.50
2023-05-15T17:54:34.380Z,5.23
2023-05-15T17:57:01.591Z,4.53
2023-05-15T17:59:31.250Z,4.73
2023-05-15T18:01:58.715Z,4.17
2023-05-15T18:04:26.152Z,3.07
2023-05-15T18:06:53.203Z,3.10
2023-05-15T18:09:24.329Z,3.03
2023-05-15T18:11:52.360Z,2.60
2023-05-15T18:14:19.440Z,2.50
2023-05-15T18:16:46.420Z,2.40
2023-05-15T18:19:13.671Z,2.67
2023-05-15T18:21:41.038Z,2.67
2023-05-15T18:24:08.069Z,2.60
2023-05-15T18:26:35.096Z,2.67
2023-05-15T18:29:02.450Z,2.83
2023-05-15T18:31:29.678Z,2.43
2023-05-15T18:33:56.840Z,2.30
2023-05-15T18:36:23.933Z,2.77
2023-05-15T18:38:51.002Z,2.60
2023-05-15T18:41:18.214Z,3.13
2023-05-15T18:43:45.454Z,2.47
2023-05-15T18:46:12.773Z,3.30
2023-05-15T18:48:40.025Z,3.23
2023-05-15T18:51:07.161Z,4.73
2023-05-15T18:53:34.414Z,3.50
2023-05-15T18:56:01.486Z,3.60
2023-05-15T18:58:28.542Z,5.37
2023-05-15T19:00:56.664Z,13.83
2023-05-15T19:03:26.002Z,5.90
2023-05-15T19:05:53.539Z,3.97
2023-05-15T19:08:20.590Z,17.70
2023-05-15T19:10:51.127Z,7.70
2023-05-15T19:13:19.151Z,49.40
2023-05-15T19:15:53.251Z,26.03
2023-05-15T19:18:20.720Z,29.70
2023-05-15T19:20:52.328Z,25.02
2023-05-15T19:23:21.236Z,12.88
2023-05-15T19:25:48.689Z,17.02
2023-05-15T19:28:16.206Z,19.70
2023-05-15T19:30:43.494Z,17.98
2023-05-15T19:33:13.062Z,17.98
2023-05-15T19:35:40.813Z,15.50
2023-05-15T19:38:08.057Z,10.02
2023-05-15T19:40:36.488Z,9.05
2023-05-15T19:43:03.924Z,7.30
2023-05-15T19:45:30.983Z,6.32
2023-05-15T19:47:59.407Z,7.22
2023-05-15T19:50:26.745Z,7.72
2023-05-15T19:52:54.001Z,5.65
2023-05-15T19:55:21.105Z,5.60
2023-05-15T19:57:48.135Z,4.78
2023-05-15T20:00:15.476Z,4.80
2023-05-15T20:02:42.728Z,4.75
2023-05-15T20:05:10.092Z,5.43
2023-05-15T20:07:38.368Z,4.07
2023-05-15T20:10:06.069Z,4.45
2023-05-15T20:12:33.207Z,7.10
2023-05-15T20:15:00.301Z,5.25
2023-05-15T20:17:27.468Z,3.45
2023-05-15T20:19:54.467Z,4.15
2023-05-15T20:22:21.536Z,4.18
2023-05-15T20:24:50.510Z,4.82
2023-05-15T20:27:18.028Z,5.60
2023-05-15T20:29:45.660Z,6.05
2023-05-15T20:32:13.801Z,5.60
2023-05-15T20:34:42.752Z,4.97
2023-05-15T20:37:09.990Z,6.75
2023-05-15T20:39:37.080Z,8.43
2023-05-15T20:42:04.309Z,6.40
2023-05-15T20:44:31.932Z,5.90
2023-05-15T20:46:59.891Z,7.25
2023-05-15T20:49:26.934Z,6.13
2023-05-15T20:51:53.976Z,5.38
2023-05-15T20:54:21.207Z,6.90
2023-05-15T20:56:48.240Z,6.68
2023-05-15T20:59:15.585Z,6.90
2023-05-15T21:01:42.648Z,5.90
2023-05-15T21:04:09.787Z,5.07
2023-05-15T21:06:36.829Z,5.30
2023-05-15T21:09:03.901Z,5.60
2023-05-15T21:11:30.997Z,7.18
2023-05-15T21:13:57.995Z,4.82
2023-05-15T21:16:25.305Z,4.97
2023-05-15T21:18:52.870Z,6.13
2023-05-15T21:21:21.133Z,6.35
2023-05-15T21:23:48.230Z,6.07
2023-05-15T21:26:15.669Z,5.30
2023-05-15T21:28:42.691Z,6.20
2023-05-15T21:31:10.542Z,7.90
2023-05-15T21:33:38.306Z,7.47
2023-05-15T21:36:05.720Z,9.52
2023-05-15T21:38:33.262Z,8.55
2023-05-15T21:41:01.671Z,6.90
2023-05-15T21:43:28.739Z,8.40
2023-05-15T21:45:56.405Z,7.95
2023-05-15T21:48:23.519Z,6.78
2023-05-15T21:50:50.927Z,6.50
2023-05-15T21:53:17.949Z,8.23
2023-05-15T21:55:45.040Z,6.10
2023-05-15T21:58:12.054Z,11.52
2023-05-15T22:00:40.448Z,5.97
2023-05-15T22:03:07.996Z,8.55
2023-05-15T22:05:35.093Z,8.00
2023-05-15T22:08:02.061Z,7.00
2023-05-15T22:10:29.095Z,5.43
2023-05-15T22:12:56.237Z,6.13
2023-05-15T22:15:23.241Z,6.97
2023-05-15T22:17:50.586Z,6.75
2023-05-15T22:20:19.080Z,6.10
2023-05-15T22:22:46.736Z,6.10
2023-05-15T22:25:13.830Z,8.63
2023-05-15T22:27:41.581Z,6.18
2023-05-15T22:30:09.140Z,6.25
2023-05-15T22:32:36.224Z,4.85
2023-05-15T22:35:03.963Z,5.35
2023-05-15T22:37:31.002Z,8.00
2023-05-15T22:39:58.088Z,8.30
2023-05-15T22:42:25.141Z,4.97
2023-05-15T22:44:54.112Z,5.28
2023-05-15T22:47:21.481Z,5.15
2023-05-15T22:49:48.496Z,4.47
2023-05-15T22:52:15.504Z,4.95
2023-05-15T22:54:42.568Z,3.85
2023-05-15T22:57:09.610Z,3.97
2023-05-15T22:59:37.556Z,4.72
2023-05-15T23:02:04.749Z,6.55
2023-05-15T23:04:31.955Z,11.15
2023-05-15T23:06:58.951Z,4.60
2023-05-15T23:09:26.229Z,4.18
2023-05-15T23:11:53.281Z,4.70
2023-05-15T23:14:20.418Z,4.75
2023-05-15T23:16:47.478Z,4.65
2023-05-15T23:19:14.590Z,4.68
2023-05-15T23:21:41.650Z,4.63
2023-05-15T23:24:08.728Z,4.53
2023-05-15T23:26:35.742Z,4.85
2023-05-15T23:29:02.803Z,4.90
2023-05-15T23:31:29.943Z,4.13
2023-05-15T23:33:56.990Z,5.10
2023-05-15T23:36:24.070Z,4.22
2023-05-15T23:38:51.094Z,5.25
2023-05-15T23:41:18.120Z,5.05
2023-05-15T23:43:45.160Z,5.05
2023-05-15T23:46:12.275Z,4.90
2023-05-15T23:48:39.327Z,4.68
2023-05-15T23:51:06.394Z,4.80
2023-05-15T23:53:33.618Z,6.65
2023-05-15T23:56:00.667Z,6.53
2023-05-15T23:58:27.840Z,4.88
